createdAt,value
2023-01-18T00:00:41.203Z,10.20
2023-01-18T00:01:36.196Z,10.50
2023-01-18T00:02:31.205Z,10.60
2023-01-18T00:03:26.323Z,10.50
2023-01-18T00:04:21.381Z,9.80
2023-01-18T00:05:16.533Z,12.20
2023-01-18T00:06:11.476Z,12.50
2023-01-18T00:07:08.621Z,11.80
2023-01-18T00:08:03.819Z,11.90
2023-01-18T00:08:59.052Z,11.50
2023-01-18T00:09:54.295Z,12.20
2023-01-18T00:10:49.669Z,12.50
2023-01-18T00:11:44.864Z,10.70
2023-01-18T00:12:40.101Z,11.10
2023-01-18T00:13:35.293Z,11.50
2023-01-18T00:14:30.651Z,12.70
2023-01-18T00:15:25.751Z,9.50
2023-01-18T00:16:21.074Z,10.40
2023-01-18T00:17:16.176Z,10.80
2023-01-18T00:18:11.511Z,10.90
2023-01-18T00:19:06.845Z,10.80
2023-01-18T00:20:01.952Z,10.50
2023-01-18T00:20:57.191Z,10.10
2023-01-18T00:21:52.547Z,9.00
2023-01-18T00:22:47.650Z,9.80
2023-01-18T00:23:42.880Z,9.80
2023-01-18T00:24:38.100Z,9.20
2023-01-18T00:25:33.578Z,9.80
2023-01-18T00:26:28.620Z,9.60
2023-01-18T00:27:23.873Z,9.80
2023-01-18T00:28:19.065Z,10.60
2023-01-18T00:29:14.418Z,9.80
2023-01-18T00:30:09.505Z,10.10
2023-01-18T00:31:05.704Z,10.00
2023-01-18T00:32:00.015Z,9.80
2023-01-18T00:32:55.616Z,9.80
2023-01-18T00:33:50.748Z,9.80
2023-01-18T00:34:45.825Z,9.50
2023-01-18T00:35:40.914Z,9.60
2023-01-18T00:36:36.015Z,8.90
2023-01-18T00:37:31.233Z,9.90
2023-01-18T00:38:26.339Z,9.20
2023-01-18T00:39:21.413Z,9.20
2023-01-18T00:40:16.511Z,9.30
2023-01-18T00:41:11.577Z,9.00
2023-01-18T00:42:06.733Z,9.50
2023-01-18T00:43:01.783Z,9.60
2023-01-18T00:43:56.769Z,8.80
2023-01-18T00:44:51.828Z,8.30
2023-01-18T00:45:46.949Z,8.80
2023-01-18T00:46:46.331Z,8.70
2023-01-18T00:47:41.137Z,8.00
2023-01-18T00:48:36.325Z,8.40
2023-01-18T00:49:32.401Z,8.40
2023-01-18T00:50:26.413Z,9.10
2023-01-18T00:51:21.475Z,8.80
2023-01-18T00:52:16.559Z,9.20
2023-01-18T00:53:11.949Z,8.60
2023-01-18T00:54:06.781Z,9.50
2023-01-18T00:55:01.712Z,8.60
2023-01-18T00:55:56.769Z,9.40
2023-01-18T00:56:51.927Z,8.60
2023-01-18T00:57:46.984Z,9.00
2023-01-18T00:58:42.087Z,8.20
2023-01-18T00:59:37.149Z,9.00
2023-01-18T01:00:32.224Z,8.90
2023-01-18T01:01:27.501Z,9.20
2023-01-18T01:02:22.336Z,8.70
2023-01-18T01:03:20.503Z,9.20
2023-01-18T01:04:15.599Z,8.30
2023-01-18T01:05:10.754Z,8.30
2023-01-18T01:06:05.729Z,8.10
2023-01-18T01:07:00.932Z,8.20
2023-01-18T01:09:24.286Z,9.80
2023-01-18T01:10:19.420Z,9.00
2023-01-18T01:11:14.840Z,9.70
2023-01-18T01:12:09.933Z,9.80
2023-01-18T01:13:05.128Z,9.20
2023-01-18T01:14:00.331Z,9.10
2023-01-18T01:14:55.673Z,9.70
2023-01-18T01:15:50.876Z,9.70
2023-01-18T01:16:46.099Z,9.70
2023-01-18T01:17:41.355Z,10.40
2023-01-18T01:18:36.543Z,9.80
2023-01-18T01:19:32.106Z,11.40
2023-01-18T01:20:27.367Z,9.70
2023-01-18T01:21:22.429Z,9.70
2023-01-18T01:22:17.637Z,10.40
2023-01-18T01:23:13.037Z,9.20
2023-01-18T01:24:08.197Z,9.20
2023-01-18T01:25:03.435Z,10.60
2023-01-18T01:25:58.726Z,10.40
2023-01-18T01:26:53.924Z,10.10
2023-01-18T01:27:49.267Z,10.80
2023-01-18T01:28:44.516Z,11.50
2023-01-18T01:29:39.835Z,11.40
2023-01-18T01:30:34.973Z,10.70
2023-01-18T01:31:30.300Z,10.30
2023-01-18T01:32:25.528Z,10.70
2023-01-18T01:33:20.746Z,11.00
2023-01-18T01:34:15.949Z,11.30
2023-01-18T01:35:11.169Z,10.80
2023-01-18T01:36:07.254Z,11.00
2023-01-18T01:37:01.784Z,11.10
2023-01-18T01:37:57.007Z,10.20
2023-01-18T01:38:52.199Z,12.00
2023-01-18T01:39:47.538Z,9.70
2023-01-18T01:40:42.642Z,10.10
2023-01-18T01:41:37.959Z,10.60
2023-01-18T01:42:33.178Z,10.70
2023-01-18T01:43:28.232Z,10.10
2023-01-18T01:44:23.615Z,9.50
2023-01-18T01:45:18.800Z,10.10
2023-01-18T01:46:14.066Z,9.80
2023-01-18T01:47:09.378Z,9.40
2023-01-18T01:48:04.462Z,10.40
2023-01-18T01:48:59.743Z,9.60
2023-01-18T01:49:55.089Z,9.80
2023-01-18T01:50:50.178Z,10.20
2023-01-18T01:51:45.497Z,10.30
2023-01-18T01:52:40.596Z,10.60
2023-01-18T01:53:35.934Z,9.80
2023-01-18T01:54:30.998Z,10.00
2023-01-18T01:55:26.219Z,9.20
2023-01-18T01:56:21.396Z,9.90
2023-01-18T01:57:16.606Z,10.60
2023-01-18T01:58:11.808Z,9.70
2023-01-18T01:59:07.148Z,10.70
2023-01-18T02:00:02.344Z,9.50
2023-01-18T02:00:57.529Z,10.40
2023-01-18T02:01:52.823Z,10.70
2023-01-18T02:02:48.167Z,9.90
2023-01-18T02:03:43.265Z,10.70
2023-01-18T02:04:38.471Z,10.40
2023-01-18T02:05:33.685Z,10.50
2023-01-18T02:06:28.896Z,9.60
2023-01-18T02:07:24.083Z,10.40
2023-01-18T02:08:19.416Z,9.80
2023-01-18T02:09:14.637Z,8.50
2023-01-18T02:10:09.980Z,10.40
2023-01-18T02:11:05.054Z,9.10
2023-01-18T02:12:00.259Z,10.90
2023-01-18T02:12:55.696Z,9.80
2023-01-18T02:13:50.945Z,9.00
2023-01-18T02:14:46.114Z,10.10
2023-01-18T02:15:41.358Z,8.90
2023-01-18T02:16:36.677Z,9.50
2023-01-18T02:17:31.763Z,9.60
2023-01-18T02:18:26.973Z,8.80
2023-01-18T02:19:22.307Z,9.10
2023-01-18T02:20:17.486Z,10.00
2023-01-18T02:21:12.582Z,9.40
2023-01-18T02:22:07.774Z,8.80
2023-01-18T02:23:02.996Z,11.30
2023-01-18T02:23:58.302Z,12.50
2023-01-18T02:24:53.507Z,10.90
2023-01-18T02:25:48.723Z,11.70
2023-01-18T02:26:44.056Z,10.50
2023-01-18T02:27:39.101Z,10.40
2023-01-18T02:28:34.341Z,9.90
2023-01-18T02:29:29.619Z,9.50
2023-01-18T02:30:24.956Z,10.00
2023-01-18T02:31:20.043Z,9.20
2023-01-18T02:32:15.247Z,9.20
2023-01-18T02:33:10.449Z,9.20
2023-01-18T02:34:05.785Z,9.30
2023-01-18T02:35:01.079Z,8.30
2023-01-18T02:35:56.409Z,9.30
2023-01-18T02:36:51.586Z,9.00
2023-01-18T02:37:46.916Z,8.70
2023-01-18T02:38:42.128Z,9.50
2023-01-18T02:39:37.373Z,9.30
2023-01-18T02:40:32.826Z,9.70
2023-01-18T02:41:28.849Z,9.20
2023-01-18T02:42:23.093Z,9.50
2023-01-18T02:43:18.327Z,9.30
2023-01-18T02:44:13.504Z,8.60
2023-01-18T02:45:08.836Z,9.50
2023-01-18T02:46:04.111Z,8.70
2023-01-18T02:46:59.444Z,9.20
2023-01-18T02:47:54.500Z,8.90
2023-01-18T02:48:49.740Z,9.30
2023-01-18T02:49:44.923Z,9.20
2023-01-18T02:50:40.262Z,9.50
2023-01-18T02:51:35.453Z,9.20
2023-01-18T02:52:30.661Z,9.10
2023-01-18T02:53:25.872Z,9.10
2023-01-18T02:54:21.123Z,8.80
2023-01-18T02:55:16.316Z,8.80
2023-01-18T02:56:12.095Z,8.20
2023-01-18T02:57:06.755Z,9.60
2023-01-18T02:58:01.995Z,8.40
2023-01-18T02:58:57.216Z,8.70
2023-01-18T02:59:52.414Z,8.40
2023-01-18T03:00:47.875Z,8.30
2023-01-18T03:01:42.981Z,8.60
2023-01-18T03:02:38.187Z,8.80
2023-01-18T03:03:33.562Z,7.60
2023-01-18T03:04:28.633Z,8.00
2023-01-18T03:05:23.939Z,8.60
2023-01-18T03:06:19.150Z,8.40
2023-01-18T03:07:14.489Z,7.80
2023-01-18T03:08:09.582Z,8.50
2023-01-18T03:09:04.801Z,8.00
2023-01-18T03:09:59.975Z,8.30
2023-01-18T03:10:55.338Z,7.40
2023-01-18T03:11:50.431Z,8.30
2023-01-18T03:12:45.743Z,8.50
2023-01-18T03:13:40.850Z,8.10
2023-01-18T03:14:36.077Z,8.00
2023-01-18T03:15:31.354Z,8.30
2023-01-18T03:16:26.462Z,8.00
2023-01-18T03:17:21.655Z,9.00
2023-01-18T03:18:16.857Z,7.80
2023-01-18T03:19:12.200Z,7.40
2023-01-18T03:20:07.629Z,8.60
2023-01-18T03:21:02.744Z,8.20
2023-01-18T03:21:57.975Z,7.70
2023-01-18T03:22:53.157Z,7.60
2023-01-18T03:23:48.390Z,8.60
2023-01-18T03:24:43.575Z,8.50
2023-01-18T03:25:38.902Z,8.30
2023-01-18T03:26:34.110Z,8.70
2023-01-18T03:27:29.371Z,9.00
2023-01-18T03:28:24.424Z,8.10
2023-01-18T03:29:19.670Z,8.10
2023-01-18T03:30:14.852Z,9.20
2023-01-18T03:31:10.233Z,9.00
2023-01-18T03:32:05.317Z,7.90
2023-01-18T03:33:00.668Z,8.70
2023-01-18T03:33:55.768Z,8.40
2023-01-18T03:34:50.983Z,8.10
2023-01-18T03:35:46.167Z,8.20
2023-01-18T03:36:41.626Z,8.90
2023-01-18T03:37:36.640Z,8.40
2023-01-18T03:38:31.836Z,8.60
2023-01-18T03:39:27.074Z,7.60
2023-01-18T03:40:22.277Z,7.60
2023-01-18T03:41:18.023Z,8.40
2023-01-18T03:42:12.724Z,8.50
2023-01-18T03:43:07.922Z,8.10
2023-01-18T03:44:03.300Z,8.40
2023-01-18T03:44:58.350Z,8.70
2023-01-18T03:45:53.703Z,7.90
2023-01-18T03:46:48.933Z,7.80
2023-01-18T03:47:44.275Z,7.70
2023-01-18T03:48:39.551Z,7.40
2023-01-18T03:49:34.789Z,7.60
2023-01-18T03:50:30.065Z,9.00
2023-01-18T03:51:25.437Z,6.80
2023-01-18T03:52:20.517Z,7.00
2023-01-18T03:53:15.710Z,7.80
2023-01-18T03:54:10.916Z,7.40
2023-01-18T03:55:06.247Z,8.00
2023-01-18T03:56:01.441Z,8.30
2023-01-18T03:56:56.720Z,7.40
2023-01-18T03:57:51.835Z,7.60
2023-01-18T03:58:47.159Z,8.20
2023-01-18T03:59:42.356Z,8.30
2023-01-18T04:00:37.775Z,7.50
2023-01-18T04:01:33.076Z,7.80
2023-01-18T04:02:28.294Z,8.10
2023-01-18T04:03:23.461Z,6.60
2023-01-18T04:04:18.712Z,8.60
2023-01-18T04:05:13.903Z,8.60
2023-01-18T04:06:09.248Z,7.50
2023-01-18T04:07:04.308Z,7.40
2023-01-18T04:07:59.625Z,7.80
2023-01-18T04:08:54.787Z,8.40
2023-01-18T04:09:50.044Z,7.80
2023-01-18T04:10:45.349Z,7.60
2023-01-18T04:11:40.688Z,7.50
2023-01-18T04:12:35.776Z,7.30
2023-01-18T04:13:31.095Z,7.50
2023-01-18T04:14:26.266Z,7.60
2023-01-18T04:15:21.463Z,6.80
2023-01-18T04:16:16.734Z,8.30
2023-01-18T04:17:12.009Z,7.60
2023-01-18T04:18:07.168Z,7.70
2023-01-18T04:19:02.462Z,7.20
2023-01-18T04:19:57.470Z,7.80
2023-01-18T04:20:52.744Z,8.00
2023-01-18T04:21:48.014Z,8.40
2023-01-18T04:22:43.054Z,7.00
2023-01-18T04:23:38.169Z,7.70
2023-01-18T04:24:33.435Z,7.60
2023-01-18T04:25:28.588Z,7.80
2023-01-18T04:26:23.842Z,8.10
2023-01-18T04:27:18.901Z,7.60
2023-01-18T04:28:14.100Z,7.50
2023-01-18T04:29:09.287Z,7.60
2023-01-18T04:30:04.532Z,8.50
2023-01-18T04:30:59.722Z,8.70
2023-01-18T04:31:55.231Z,8.50
2023-01-18T04:32:50.298Z,9.00
2023-01-18T04:33:45.517Z,8.80
2023-01-18T04:34:40.760Z,9.20
2023-01-18T04:35:35.979Z,8.70
2023-01-18T04:36:31.163Z,8.90
2023-01-18T04:37:26.468Z,8.70
2023-01-18T04:38:21.657Z,8.80
2023-01-18T04:39:16.866Z,8.40
2023-01-18T04:40:12.072Z,9.20
2023-01-18T04:41:07.404Z,8.20
2023-01-18T04:42:02.715Z,8.10
2023-01-18T04:42:58.047Z,8.00
2023-01-18T04:43:53.156Z,7.80
2023-01-18T04:44:48.261Z,8.00
2023-01-18T04:45:43.450Z,8.50
2023-01-18T04:46:38.730Z,8.70
2023-01-18T04:47:33.813Z,9.80
2023-01-18T04:48:29.056Z,9.50
2023-01-18T04:49:24.385Z,9.10
2023-01-18T04:50:19.462Z,9.70
2023-01-18T04:51:14.772Z,8.10
2023-01-18T04:52:10.152Z,8.90
2023-01-18T04:53:05.353Z,8.30
2023-01-18T04:54:00.593Z,9.00
2023-01-18T04:54:55.818Z,9.30
2023-01-18T04:55:51.041Z,9.60
2023-01-18T04:56:46.238Z,9.30
2023-01-18T04:57:41.451Z,8.70
2023-01-18T04:58:36.774Z,8.70
2023-01-18T04:59:34.607Z,8.60
2023-01-18T05:00:27.179Z,9.00
2023-01-18T05:01:22.566Z,7.90
2023-01-18T05:02:17.795Z,8.10
2023-01-18T05:03:12.886Z,7.40
2023-01-18T05:04:08.061Z,8.20
2023-01-18T05:05:03.589Z,8.10
2023-01-18T05:05:58.519Z,7.40
2023-01-18T05:06:53.730Z,7.90
2023-01-18T05:07:48.990Z,7.90
2023-01-18T05:08:44.181Z,8.20
2023-01-18T05:09:39.392Z,7.60
2023-01-18T05:10:34.814Z,7.50
2023-01-18T05:11:29.984Z,6.80
2023-01-18T05:12:25.306Z,6.90
2023-01-18T05:13:20.386Z,7.80
2023-01-18T05:14:15.683Z,6.80
2023-01-18T05:15:10.867Z,7.70
2023-01-18T05:16:06.477Z,7.20
2023-01-18T05:17:01.540Z,6.90
2023-01-18T05:17:56.686Z,6.80
2023-01-18T05:18:51.809Z,6.70
2023-01-18T05:19:47.098Z,6.90
2023-01-18T05:20:42.255Z,6.50
2023-01-18T05:21:37.524Z,6.60
2023-01-18T05:22:32.984Z,6.40
2023-01-18T05:23:28.035Z,7.10
2023-01-18T05:24:23.178Z,6.50
2023-01-18T05:25:18.478Z,6.40
2023-01-18T05:26:13.497Z,6.20
2023-01-18T05:27:08.764Z,6.50
2023-01-18T05:28:04.039Z,6.00
2023-01-18T05:28:59.195Z,6.50
2023-01-18T05:29:54.447Z,5.80
2023-01-18T05:30:49.592Z,5.90
2023-01-18T05:31:44.695Z,7.10
2023-01-18T05:32:40.026Z,6.00
2023-01-18T05:33:35.477Z,6.70
2023-01-18T05:34:30.212Z,6.60
2023-01-18T05:35:25.372Z,6.10
2023-01-18T05:36:20.638Z,6.40
2023-01-18T05:37:15.948Z,6.90
2023-01-18T05:38:10.985Z,5.50
2023-01-18T05:39:06.403Z,6.00
2023-01-18T05:40:01.536Z,5.70
2023-01-18T05:40:56.732Z,6.10
2023-01-18T05:41:51.821Z,5.00
2023-01-18T05:42:47.197Z,6.10
2023-01-18T05:43:42.367Z,5.90
2023-01-18T05:44:37.470Z,5.80
2023-01-18T05:45:32.814Z,5.70
2023-01-18T05:46:27.834Z,6.20
2023-01-18T05:47:23.004Z,5.80
2023-01-18T05:48:18.281Z,5.30
2023-01-18T05:49:13.396Z,5.20
2023-01-18T05:50:08.670Z,5.50
2023-01-18T05:51:03.989Z,5.90
2023-01-18T05:51:59.158Z,6.00
2023-01-18T05:52:54.431Z,6.60
2023-01-18T05:53:49.491Z,5.60
2023-01-18T05:54:44.636Z,5.30
2023-01-18T05:55:39.824Z,4.60
2023-01-18T05:56:35.378Z,4.90
2023-01-18T05:57:30.079Z,5.00
2023-01-18T05:58:25.175Z,5.40
2023-01-18T05:59:20.522Z,5.40
2023-01-18T06:00:15.653Z,5.50
2023-01-18T06:01:10.990Z,5.40
2023-01-18T06:02:06.142Z,4.60
2023-01-18T06:03:01.522Z,4.70
2023-01-18T06:03:56.248Z,4.70
2023-01-18T06:04:51.495Z,5.00
2023-01-18T06:05:46.591Z,5.20
2023-01-18T06:06:41.862Z,4.50
2023-01-18T06:07:37.092Z,5.40
2023-01-18T06:08:32.182Z,5.00
2023-01-18T06:09:27.398Z,5.00
2023-01-18T06:10:22.517Z,4.80
2023-01-18T06:11:17.659Z,4.80
2023-01-18T06:12:12.988Z,4.70
2023-01-18T06:13:08.247Z,4.50
2023-01-18T06:14:04.076Z,4.30
2023-01-18T06:14:59.161Z,4.40
2023-01-18T06:15:54.319Z,3.70
2023-01-18T06:16:49.413Z,4.70
2023-01-18T06:17:44.799Z,4.60
2023-01-18T06:18:40.051Z,4.90
2023-01-18T06:19:35.171Z,4.60
2023-01-18T06:20:30.259Z,4.70
2023-01-18T06:21:25.543Z,5.20
2023-01-18T06:22:20.490Z,4.90
2023-01-18T06:23:15.875Z,4.60
2023-01-18T06:24:11.016Z,5.10
2023-01-18T06:25:07.037Z,4.40
2023-01-18T06:26:02.363Z,4.50
2023-01-18T06:26:57.351Z,4.80
2023-01-18T06:27:53.030Z,4.30
2023-01-18T06:28:48.319Z,4.70
2023-01-18T06:29:43.570Z,4.00
2023-01-18T06:30:39.981Z,4.70
2023-01-18T06:31:35.272Z,4.70
2023-01-18T06:32:31.076Z,4.80
2023-01-18T06:33:26.140Z,4.20
2023-01-18T06:34:21.581Z,4.60
2023-01-18T06:35:17.317Z,4.70
2023-01-18T06:36:12.687Z,4.80
2023-01-18T06:37:08.423Z,4.90
2023-01-18T06:38:03.817Z,4.80
2023-01-18T06:38:58.956Z,4.10
2023-01-18T06:39:54.786Z,4.60
2023-01-18T06:40:49.797Z,4.90
2023-01-18T06:41:45.114Z,5.10
2023-01-18T06:42:41.343Z,5.60
2023-01-18T06:43:36.524Z,4.30
2023-01-18T06:44:32.358Z,4.50
2023-01-18T06:45:27.690Z,3.90
2023-01-18T06:46:23.224Z,4.50
2023-01-18T06:47:18.727Z,4.80
2023-01-18T06:48:13.959Z,5.20
2023-01-18T06:49:09.780Z,5.00
2023-01-18T06:50:05.025Z,5.10
2023-01-18T06:51:00.396Z,4.60
2023-01-18T06:51:56.262Z,5.30
2023-01-18T06:52:51.359Z,5.00
2023-01-18T06:53:46.632Z,4.60
2023-01-18T06:54:42.997Z,4.90
2023-01-18T06:55:38.315Z,5.30
2023-01-18T06:56:34.045Z,4.50
2023-01-18T06:57:29.228Z,4.80
2023-01-18T06:58:24.432Z,4.30
2023-01-18T06:59:20.296Z,5.50
2023-01-18T07:00:15.514Z,4.80
2023-01-18T07:01:11.484Z,5.10
2023-01-18T07:02:06.746Z,4.90
2023-01-18T07:03:01.710Z,4.90
2023-01-18T07:03:57.696Z,4.90
2023-01-18T07:04:52.866Z,4.40
2023-01-18T07:05:48.201Z,5.20
2023-01-18T07:06:44.507Z,5.80
2023-01-18T07:07:39.845Z,5.20
2023-01-18T07:08:35.578Z,5.90
2023-01-18T07:09:31.024Z,6.40
2023-01-18T07:10:26.439Z,8.00
2023-01-18T07:11:22.122Z,5.90
2023-01-18T07:12:17.351Z,6.00
2023-01-18T07:13:13.360Z,5.60
2023-01-18T07:14:08.623Z,5.50
2023-01-18T07:15:20.232Z,5.50
2023-01-18T07:16:01.263Z,5.20
2023-01-18T07:16:55.099Z,5.30
2023-01-18T07:17:50.457Z,5.40
2023-01-18T07:18:46.763Z,5.70
2023-01-18T07:19:42.100Z,6.10
2023-01-18T07:20:38.064Z,5.60
2023-01-18T07:21:33.141Z,6.00
2023-01-18T07:22:28.415Z,5.20
2023-01-18T07:23:24.262Z,6.30
2023-01-18T07:24:19.582Z,4.80
2023-01-18T07:25:14.765Z,3.80
2023-01-18T07:26:10.062Z,3.40
2023-01-18T07:27:05.742Z,3.30
2023-01-18T07:28:01.130Z,3.00
2023-01-18T07:28:56.416Z,3.70
2023-01-18T07:29:52.792Z,3.20
2023-01-18T07:30:48.244Z,3.30
2023-01-18T07:31:43.968Z,2.70
2023-01-18T07:32:39.070Z,3.30
2023-01-18T07:33:34.397Z,3.60
2023-01-18T07:34:30.192Z,3.50
2023-01-18T07:35:25.399Z,3.20
2023-01-18T07:36:21.127Z,3.20
2023-01-18T07:37:16.400Z,3.20
2023-01-18T07:38:11.694Z,3.50
2023-01-18T07:39:07.556Z,3.40
2023-01-18T07:40:02.848Z,3.60
2023-01-18T07:40:58.142Z,3.40
2023-01-18T07:41:54.513Z,2.80
2023-01-18T07:42:49.820Z,2.90
2023-01-18T07:43:45.190Z,3.10
2023-01-18T07:44:40.572Z,2.50
2023-01-18T07:45:35.778Z,2.60
2023-01-18T07:46:30.902Z,2.90
2023-01-18T07:47:25.801Z,2.70
2023-01-18T07:48:20.828Z,2.40
2023-01-18T07:49:15.898Z,2.70
2023-01-18T07:50:10.985Z,2.90
2023-01-18T07:51:06.661Z,2.40
2023-01-18T07:52:01.195Z,2.50
2023-01-18T07:52:56.696Z,2.20
2023-01-18T07:53:54.179Z,2.60
2023-01-18T07:54:49.127Z,2.50
2023-01-18T07:55:44.200Z,2.20
2023-01-18T07:56:39.320Z,2.50
2023-01-18T07:57:34.431Z,2.30
2023-01-18T07:58:29.818Z,2.40
2023-01-18T07:59:24.606Z,2.10
2023-01-18T08:00:19.647Z,2.60
2023-01-18T08:01:14.845Z,3.50
2023-01-18T08:02:09.962Z,2.60
2023-01-18T08:03:05.217Z,3.20
2023-01-18T08:03:59.936Z,2.30
2023-01-18T08:04:54.924Z,2.40
2023-01-18T08:05:49.913Z,2.80
2023-01-18T08:06:45.167Z,3.10
2023-01-18T08:07:40.176Z,2.30
2023-01-18T08:08:35.309Z,2.20
2023-01-18T08:09:30.411Z,2.10
2023-01-18T08:10:27.785Z,2.10
2023-01-18T08:11:22.525Z,1.80
2023-01-18T08:12:17.938Z,1.90
2023-01-18T08:13:13.316Z,1.90
2023-01-18T08:14:08.714Z,2.00
2023-01-18T08:15:04.232Z,2.20
2023-01-18T08:15:59.671Z,1.60
2023-01-18T08:16:54.910Z,1.60
2023-01-18T08:17:50.304Z,1.80
2023-01-18T08:18:45.683Z,1.70
2023-01-18T08:19:41.066Z,2.00
2023-01-18T08:20:36.479Z,1.80
2023-01-18T08:21:31.864Z,1.70
2023-01-18T08:22:27.237Z,2.30
2023-01-18T08:23:22.634Z,2.00
2023-01-18T08:24:17.997Z,1.90
2023-01-18T08:25:13.655Z,2.10
2023-01-18T08:26:08.763Z,1.90
2023-01-18T08:27:04.184Z,2.30
2023-01-18T08:27:59.677Z,2.40
2023-01-18T08:28:54.952Z,2.20
2023-01-18T08:29:49.932Z,2.40
2023-01-18T08:30:44.971Z,2.20
2023-01-18T08:31:40.040Z,1.70
2023-01-18T08:32:35.258Z,1.90
2023-01-18T08:33:30.221Z,1.60
2023-01-18T08:34:25.316Z,1.50
2023-01-18T08:35:21.365Z,1.70
2023-01-18T08:36:16.019Z,1.60
2023-01-18T08:37:10.451Z,1.70
2023-01-18T08:38:05.608Z,1.80
2023-01-18T08:39:00.595Z,1.90
2023-01-18T08:39:55.747Z,1.50
2023-01-18T08:40:52.692Z,1.60
2023-01-18T08:41:47.596Z,1.80
2023-01-18T08:42:42.691Z,1.60
2023-01-18T08:43:37.730Z,1.60
2023-01-18T08:44:32.708Z,1.50
2023-01-18T08:45:27.827Z,1.30
2023-01-18T08:46:22.892Z,1.50
2023-01-18T08:47:17.861Z,1.80
2023-01-18T08:48:12.847Z,1.30
2023-01-18T08:49:07.942Z,1.50
2023-01-18T08:50:04.014Z,1.30
2023-01-18T08:50:59.487Z,1.10
2023-01-18T08:51:55.147Z,1.30
2023-01-18T08:52:50.552Z,0.80
2023-01-18T08:53:45.951Z,1.10
2023-01-18T08:54:41.836Z,0.80
2023-01-18T08:55:37.179Z,1.00
2023-01-18T08:56:33.242Z,1.10
2023-01-18T08:57:28.462Z,1.10
2023-01-18T08:58:23.843Z,1.00
2023-01-18T08:59:19.719Z,1.10
2023-01-18T09:00:15.117Z,1.00
2023-01-18T09:01:10.771Z,0.90
2023-01-18T09:02:06.977Z,1.00
2023-01-18T09:03:02.960Z,1.10
2023-01-18T09:03:58.074Z,1.00
2023-01-18T09:04:53.457Z,1.00
2023-01-18T09:05:48.963Z,1.70
2023-01-18T09:06:44.689Z,0.90
2023-01-18T09:07:40.113Z,0.90
2023-01-18T09:08:36.048Z,0.90
2023-01-18T09:09:31.300Z,1.00
2023-01-18T09:10:26.795Z,1.20
2023-01-18T09:11:22.522Z,1.10
2023-01-18T09:12:17.884Z,1.10
2023-01-18T09:13:14.350Z,0.90
2023-01-18T09:14:09.560Z,1.10
2023-01-18T09:15:04.968Z,1.20
2023-01-18T09:17:25.906Z,1.10
2023-01-18T09:18:21.175Z,1.10
2023-01-18T09:19:16.572Z,1.00
2023-01-18T09:20:12.009Z,1.10
2023-01-18T09:21:07.897Z,1.20
2023-01-18T09:22:02.879Z,1.30
2023-01-18T09:22:58.413Z,1.10
2023-01-18T09:23:53.554Z,1.20
2023-01-18T09:24:48.976Z,1.70
2023-01-18T09:25:44.545Z,1.30
2023-01-18T09:26:40.088Z,1.00
2023-01-18T09:27:35.361Z,1.40
2023-01-18T09:28:30.921Z,1.70
2023-01-18T09:29:26.657Z,1.60
2023-01-18T09:30:21.766Z,1.40
2023-01-18T09:31:17.204Z,1.50
2023-01-18T09:32:12.592Z,1.80
2023-01-18T09:33:08.147Z,1.10
2023-01-18T09:34:18.519Z,0.80
2023-01-18T09:34:59.905Z,0.90
2023-01-18T09:35:54.259Z,1.20
2023-01-18T09:36:49.840Z,0.90
2023-01-18T09:37:45.217Z,0.90
2023-01-18T09:38:40.762Z,0.80
2023-01-18T09:39:50.765Z,0.90
2023-01-18T09:40:32.462Z,1.20
2023-01-18T09:41:26.928Z,1.80
2023-01-18T09:42:22.328Z,1.70
2023-01-18T09:43:17.727Z,1.40
2023-01-18T09:44:13.077Z,1.30
2023-01-18T09:45:08.508Z,0.90
2023-01-18T09:46:04.118Z,1.10
2023-01-18T09:46:59.437Z,1.10
2023-01-18T09:47:54.866Z,1.10
2023-01-18T09:48:50.293Z,0.80
2023-01-18T09:49:45.706Z,0.80
2023-01-18T09:50:41.059Z,0.90
2023-01-18T09:51:36.528Z,1.20
2023-01-18T09:52:31.934Z,0.80
2023-01-18T09:53:27.504Z,0.90
2023-01-18T09:54:22.919Z,1.50
2023-01-18T09:55:18.456Z,1.00
2023-01-18T09:56:13.823Z,0.80
2023-01-18T09:57:09.134Z,1.10
2023-01-18T09:58:04.685Z,0.90
2023-01-18T09:58:59.944Z,1.20
2023-01-18T09:59:55.316Z,1.50
2023-01-18T10:00:50.795Z,1.10
2023-01-18T10:01:46.159Z,1.20
2023-01-18T10:02:41.452Z,0.90
2023-01-18T10:03:36.831Z,1.10
2023-01-18T10:04:32.229Z,1.10
2023-01-18T10:05:27.604Z,1.10
2023-01-18T10:06:23.112Z,1.20
2023-01-18T10:07:18.516Z,1.20
2023-01-18T10:08:13.851Z,1.20
2023-01-18T10:09:09.069Z,1.30
2023-01-18T10:10:04.591Z,1.30
2023-01-18T10:10:59.810Z,0.90
2023-01-18T10:11:55.183Z,1.20
2023-01-18T10:12:50.563Z,1.40
2023-01-18T10:13:46.070Z,1.10
2023-01-18T10:14:41.413Z,1.30
2023-01-18T10:15:36.631Z,1.60
2023-01-18T10:16:32.169Z,1.40
2023-01-18T10:17:27.415Z,1.00
2023-01-18T10:18:22.765Z,1.30
2023-01-18T10:19:18.294Z,1.30
2023-01-18T10:20:13.535Z,2.00
2023-01-18T10:21:08.911Z,1.60
2023-01-18T10:22:04.318Z,2.30
2023-01-18T10:23:00.155Z,2.00
2023-01-18T10:23:55.101Z,1.90
2023-01-18T10:24:50.527Z,2.10
2023-01-18T10:25:45.907Z,2.60
2023-01-18T10:26:41.423Z,1.90
2023-01-18T10:27:36.738Z,1.50
2023-01-18T10:28:32.086Z,1.50
2023-01-18T10:29:27.445Z,1.60
2023-01-18T10:30:23.087Z,1.50
2023-01-18T10:31:18.172Z,1.30
2023-01-18T10:32:13.556Z,1.40
2023-01-18T10:33:08.919Z,1.30
2023-01-18T10:34:04.279Z,1.10
2023-01-18T10:34:59.781Z,1.30
2023-01-18T10:35:55.028Z,1.40
2023-01-18T10:36:50.634Z,1.50
2023-01-18T10:37:45.741Z,1.40
2023-01-18T10:38:41.100Z,1.40
2023-01-18T10:39:36.508Z,1.30
2023-01-18T10:40:31.852Z,1.30
2023-01-18T10:41:27.271Z,1.70
2023-01-18T10:42:23.509Z,1.40
2023-01-18T10:43:17.940Z,1.30
2023-01-18T10:44:13.280Z,1.80
2023-01-18T10:45:08.819Z,1.40
2023-01-18T10:46:04.136Z,1.60
2023-01-18T10:46:59.879Z,1.40
2023-01-18T10:47:54.875Z,1.80
2023-01-18T10:48:49.971Z,1.50
2023-01-18T10:49:45.050Z,1.40
2023-01-18T10:50:40.175Z,1.30
2023-01-18T10:51:35.072Z,1.50
2023-01-18T10:52:30.231Z,1.10
2023-01-18T10:53:25.104Z,1.40
2023-01-18T10:54:20.197Z,1.20
2023-01-18T10:55:15.579Z,1.20
2023-01-18T10:56:10.732Z,1.60
2023-01-18T10:57:05.689Z,1.50
2023-01-18T10:58:01.127Z,1.30
2023-01-18T10:58:55.814Z,2.10
2023-01-18T10:59:50.792Z,1.50
2023-01-18T11:00:45.969Z,1.70
2023-01-18T11:01:41.133Z,1.60
2023-01-18T11:02:36.040Z,1.80
2023-01-18T11:03:30.996Z,2.00
2023-01-18T11:04:26.011Z,1.70
2023-01-18T11:05:20.992Z,1.90
2023-01-18T11:06:15.964Z,1.80
2023-01-18T11:07:11.352Z,1.80
2023-01-18T11:08:06.861Z,1.40
2023-01-18T11:09:02.227Z,1.60
2023-01-18T11:09:57.472Z,1.60
2023-01-18T11:10:52.864Z,2.70
2023-01-18T11:11:48.299Z,2.30
2023-01-18T11:12:43.678Z,1.90
2023-01-18T11:13:39.206Z,1.80
2023-01-18T11:14:34.505Z,2.00
2023-01-18T11:15:29.872Z,1.80
2023-01-18T11:16:25.278Z,2.10
2023-01-18T11:17:20.661Z,2.40
2023-01-18T11:18:20.225Z,2.10
2023-01-18T11:19:15.821Z,2.00
2023-01-18T11:20:11.023Z,2.10
2023-01-18T11:21:06.023Z,2.10
2023-01-18T11:22:01.082Z,2.50
2023-01-18T11:22:56.163Z,2.60
2023-01-18T11:23:51.127Z,2.50
2023-01-18T11:24:46.354Z,2.70
2023-01-18T11:25:41.237Z,2.60
2023-01-18T11:26:36.233Z,2.80
2023-01-18T11:27:31.324Z,2.80
2023-01-18T11:28:26.541Z,2.10
2023-01-18T11:29:21.433Z,2.70
2023-01-18T11:30:16.512Z,2.50
2023-01-18T11:31:11.653Z,2.50
2023-01-18T11:32:06.820Z,2.40
2023-01-18T11:33:02.087Z,2.40
2023-01-18T11:33:57.421Z,2.40
2023-01-18T11:34:52.810Z,2.50
2023-01-18T11:35:48.247Z,1.90
2023-01-18T11:36:43.816Z,2.20
2023-01-18T11:37:39.199Z,2.00
2023-01-18T11:38:34.596Z,2.20
2023-01-18T11:39:29.971Z,2.30
2023-01-18T11:40:25.327Z,2.20
2023-01-18T11:41:24.781Z,2.20
2023-01-18T11:42:20.481Z,2.80
2023-01-18T11:43:15.628Z,2.00
2023-01-18T11:44:11.036Z,1.90
2023-01-18T11:45:06.429Z,2.00
2023-01-18T11:46:01.998Z,2.00
2023-01-18T11:46:57.156Z,2.00
2023-01-18T11:47:52.640Z,2.20
2023-01-18T11:48:48.173Z,2.30
2023-01-18T11:49:43.575Z,2.50
2023-01-18T11:50:39.146Z,2.60
2023-01-18T11:51:34.388Z,2.50
2023-01-18T11:52:29.805Z,2.20
2023-01-18T11:53:24.878Z,2.40
2023-01-18T11:54:19.876Z,2.60
2023-01-18T11:55:14.945Z,2.20
2023-01-18T11:56:10.190Z,2.20
2023-01-18T11:57:05.077Z,2.60
2023-01-18T11:58:00.511Z,2.10
2023-01-18T11:58:55.253Z,2.10
2023-01-18T11:59:50.379Z,2.50
2023-01-18T12:00:45.461Z,2.10
2023-01-18T12:01:40.438Z,2.00
2023-01-18T12:02:35.630Z,2.20
2023-01-18T12:03:30.666Z,2.00
2023-01-18T12:04:27.736Z,2.50
2023-01-18T12:05:22.719Z,2.70
2023-01-18T12:06:17.836Z,2.50
2023-01-18T12:07:12.823Z,2.20
2023-01-18T12:08:09.170Z,1.80
2023-01-18T12:09:04.495Z,2.20
2023-01-18T12:09:59.816Z,2.30
2023-01-18T12:10:55.228Z,2.30
2023-01-18T12:11:51.329Z,2.80
2023-01-18T12:12:47.037Z,2.60
2023-01-18T12:13:42.028Z,2.10
2023-01-18T12:14:37.436Z,2.00
2023-01-18T12:15:32.828Z,2.30
2023-01-18T12:16:28.229Z,2.20
2023-01-18T12:17:23.638Z,1.90